Northwest, Indiana
Current Conditions -  °F | °C
As of 5:55 PM on Saturday 20 Dec 2014 (Local Time) from KDCY Reporting Station
Overcast Overcast  
Wind Chill: 33°   Ceiling: 6000
Heat Index: 33°   Visibility: 10mi
Dew Point: 25°   Wind: 0mph
Humidity: 72%   Direction: NA
Pressure: 30.28"   Gusts: NA
Location:  38.6165°N, 86.6265°W
Report Text: KDCY 202255Z AUTO 00000KT 10SM OVC060 01/M04 A3028 RMK AO2 T00061039
Loading
Personal Weather Stations






























Interactive Weather Map New forecast layout! Learn more

10-Day Weather Forecast

Advertisements
Track Severe Weather on mobile